createdAt,value
2018-12-12T00:00:10.585Z,49.85
2018-12-12T00:02:39.700Z,49.48
2018-12-12T00:05:08.917Z,49.18
2018-12-12T00:07:38.104Z,49.42
2018-12-12T00:10:09.491Z,50.00
2018-12-12T00:12:38.768Z,49.87
2018-12-12T00:15:07.459Z,49.62
2018-12-12T00:17:36.734Z,49.59
2018-12-12T00:20:05.959Z,48.75
2018-12-12T00:22:34.813Z,47.81
2018-12-12T00:25:03.714Z,47.88
2018-12-12T00:27:32.447Z,48.34
2018-12-12T00:30:01.575Z,48.47
2018-12-12T00:32:30.615Z,48.62
2018-12-12T00:34:59.633Z,47.85
2018-12-12T00:37:28.993Z,47.96
2018-12-12T00:39:58.017Z,48.30
2018-12-12T00:42:27.077Z,48.29
2018-12-12T00:44:56.055Z,48.21
2018-12-12T00:47:25.170Z,48.11
2018-12-12T00:49:54.289Z,48.04
2018-12-12T00:52:23.337Z,48.33
2018-12-12T00:54:52.609Z,48.33
2018-12-12T00:57:22.548Z,47.56
2018-12-12T00:59:51.608Z,47.93
2018-12-12T01:02:20.407Z,47.88
2018-12-12T01:04:49.365Z,47.61
2018-12-12T01:07:18.313Z,47.47
2018-12-12T01:09:47.476Z,47.24
2018-12-12T01:12:16.605Z,47.30
2018-12-12T01:14:45.560Z,46.48
2018-12-12T01:17:14.648Z,46.92
2018-12-12T01:19:43.585Z,46.83
2018-12-12T01:22:12.489Z,46.40
2018-12-12T01:24:41.267Z,46.64
2018-12-12T01:27:10.377Z,46.87
2018-12-12T01:29:39.388Z,46.49
2018-12-12T01:32:08.428Z,46.79
2018-12-12T01:34:37.648Z,47.24
2018-12-12T01:37:07.175Z,45.93
2018-12-12T01:39:36.336Z,45.92
2018-12-12T01:42:05.328Z,45.70
2018-12-12T01:44:34.279Z,45.39
2018-12-12T01:47:03.381Z,45.12
2018-12-12T01:49:32.297Z,45.17
2018-12-12T01:52:01.245Z,45.02
2018-12-12T01:54:30.021Z,45.44
2018-12-12T01:56:58.916Z,45.11
2018-12-12T01:59:27.710Z,44.90
2018-12-12T02:01:56.800Z,43.90
2018-12-12T02:04:25.748Z,44.69
2018-12-12T02:06:54.439Z,44.82
2018-12-12T02:09:23.443Z,44.46
2018-12-12T02:11:52.236Z,43.89
2018-12-12T02:14:21.145Z,43.87
2018-12-12T02:16:50.086Z,43.46
2018-12-12T02:19:19.185Z,43.85
2018-12-12T02:21:48.245Z,44.12
2018-12-12T02:24:17.095Z,43.25
2018-12-12T02:26:46.182Z,43.58
2018-12-12T02:29:15.215Z,43.33
2018-12-12T02:31:44.099Z,42.95
2018-12-12T02:34:13.234Z,43.59
2018-12-12T02:36:42.292Z,43.20
2018-12-12T02:39:11.236Z,42.72
2018-12-12T02:41:40.284Z,42.78
2018-12-12T02:44:09.323Z,42.65
2018-12-12T02:46:38.124Z,42.61
2018-12-12T02:49:07.078Z,42.77
2018-12-12T02:51:36.020Z,43.56
2018-12-12T02:54:04.800Z,44.63
2018-12-12T02:56:33.931Z,45.88
2018-12-12T02:59:02.990Z,45.59
2018-12-12T03:01:31.887Z,46.21
2018-12-12T03:04:00.810Z,46.94
2018-12-12T03:06:29.503Z,46.99
2018-12-12T03:08:58.475Z,47.82
2018-12-12T03:11:27.429Z,48.41
2018-12-12T03:13:56.216Z,47.31
2018-12-12T03:16:25.258Z,47.39
2018-12-12T03:18:54.149Z,47.53
2018-12-12T03:21:23.286Z,47.84
2018-12-12T03:23:52.535Z,47.69
2018-12-12T03:26:21.577Z,47.46
2018-12-12T03:28:50.310Z,47.30
2018-12-12T03:31:19.360Z,46.82
2018-12-12T03:33:48.299Z,47.12
2018-12-12T03:36:17.107Z,47.17
2018-12-12T03:38:46.147Z,47.25
2018-12-12T03:41:15.067Z,47.55
2018-12-12T03:43:43.977Z,47.71
2018-12-12T03:46:12.896Z,47.58
2018-12-12T03:48:41.901Z,48.14
2018-12-12T03:51:10.818Z,47.65
2018-12-12T03:53:39.729Z,47.36
2018-12-12T03:56:08.810Z,47.20
2018-12-12T03:58:37.821Z,47.31
2018-12-12T04:01:06.608Z,46.95
2018-12-12T04:03:35.485Z,46.55
2018-12-12T04:06:04.207Z,46.48
2018-12-12T04:08:33.066Z,46.72
2018-12-12T04:11:01.799Z,46.49
2018-12-12T04:13:30.900Z,46.25
2018-12-12T04:15:59.813Z,46.22
2018-12-12T04:18:28.638Z,46.01
2018-12-12T04:20:57.612Z,45.34
2018-12-12T04:23:26.617Z,45.98
2018-12-12T04:25:55.521Z,45.44
2018-12-12T04:28:24.604Z,45.87
2018-12-12T04:30:53.460Z,46.12
2018-12-12T04:33:22.485Z,46.07
2018-12-12T04:35:51.378Z,47.17
2018-12-12T04:38:20.327Z,47.85
2018-12-12T04:40:49.257Z,47.45
2018-12-12T04:43:18.107Z,48.08
2018-12-12T04:45:46.930Z,47.59
2018-12-12T04:48:15.923Z,48.08
2018-12-12T04:50:45.454Z,48.41
2018-12-12T04:53:14.575Z,48.48
2018-12-12T04:55:43.635Z,48.15
2018-12-12T04:58:12.808Z,48.23
2018-12-12T05:00:41.926Z,48.92
2018-12-12T05:03:10.876Z,49.03
2018-12-12T05:05:39.922Z,49.25
2018-12-12T05:08:08.723Z,49.25
2018-12-12T05:10:37.802Z,49.87
2018-12-12T05:13:06.904Z,49.46
2018-12-12T05:15:35.862Z,49.80
2018-12-12T05:18:04.867Z,49.72
2018-12-12T05:20:33.842Z,49.70
2018-12-12T05:23:02.726Z,49.61
2018-12-12T05:25:31.775Z,49.89
2018-12-12T05:28:00.577Z,49.70
2018-12-12T05:30:29.720Z,50.05
2018-12-12T05:32:58.715Z,49.83
2018-12-12T05:35:27.675Z,49.94
2018-12-12T05:37:56.660Z,49.93
2018-12-12T05:40:25.919Z,50.51
2018-12-12T05:42:54.756Z,50.19
2018-12-12T05:45:23.925Z,50.41
2018-12-12T05:47:52.958Z,50.46
2018-12-12T05:50:23.044Z,50.74
2018-12-12T05:52:51.974Z,50.57
2018-12-12T05:55:20.949Z,50.63
2018-12-12T05:57:50.056Z,51.44
2018-12-12T06:00:19.059Z,51.01
2018-12-12T06:02:48.244Z,51.31
2018-12-12T06:05:17.283Z,51.77
2018-12-12T06:07:46.244Z,51.72
2018-12-12T06:10:15.240Z,51.64
2018-12-12T06:12:44.375Z,51.47
2018-12-12T06:15:13.392Z,51.78
2018-12-12T06:17:42.304Z,51.78
2018-12-12T06:20:11.497Z,51.45
2018-12-12T06:22:40.488Z,51.41
2018-12-12T06:25:09.481Z,51.29
2018-12-12T06:27:38.500Z,51.45
2018-12-12T06:30:08.661Z,51.53
2018-12-12T06:32:37.564Z,51.48
2018-12-12T06:35:07.032Z,52.26
2018-12-12T06:37:36.102Z,52.08
2018-12-12T06:40:05.151Z,52.19
2018-12-12T06:42:34.026Z,51.86
2018-12-12T06:45:02.976Z,51.76
2018-12-12T06:47:32.121Z,51.37
2018-12-12T06:50:01.106Z,52.24
2018-12-12T06:52:30.144Z,52.30
2018-12-12T06:54:59.176Z,52.14
2018-12-12T06:57:27.940Z,51.89
2018-12-12T06:59:56.973Z,51.02
2018-12-12T07:02:26.105Z,51.22
2018-12-12T07:04:55.176Z,50.93
2018-12-12T07:07:24.534Z,50.79
2018-12-12T07:09:53.643Z,50.55
2018-12-12T07:12:22.360Z,50.66
2018-12-12T07:14:51.403Z,50.16
2018-12-12T07:17:20.350Z,50.38
2018-12-12T07:19:49.364Z,50.03
2018-12-12T07:22:18.363Z,49.17
2018-12-12T07:24:47.385Z,49.72
2018-12-12T07:27:16.393Z,49.14
2018-12-12T07:29:45.745Z,49.02
2018-12-12T07:32:14.872Z,47.96
2018-12-12T07:34:43.800Z,48.19
2018-12-12T07:37:12.983Z,47.27
2018-12-12T07:39:42.021Z,47.80
2018-12-12T07:42:10.921Z,47.13
2018-12-12T07:44:39.952Z,46.67
2018-12-12T07:47:08.889Z,47.03
2018-12-12T07:49:37.880Z,47.06
2018-12-12T07:52:06.771Z,46.71
2018-12-12T07:54:35.548Z,47.25
2018-12-12T07:57:04.560Z,46.35
2018-12-12T07:59:33.234Z,46.32
2018-12-12T08:02:02.414Z,46.55
2018-12-12T08:04:31.452Z,46.64
2018-12-12T08:07:00.309Z,46.09
2018-12-12T08:09:29.218Z,45.86
2018-12-12T08:11:58.056Z,45.62
2018-12-12T08:14:27.054Z,45.84
2018-12-12T08:16:56.057Z,45.90
2018-12-12T08:19:25.075Z,45.64
2018-12-12T08:21:53.836Z,44.24
2018-12-12T08:24:22.728Z,44.23
2018-12-12T08:26:51.784Z,44.58
2018-12-12T08:29:20.813Z,44.45
2018-12-12T08:31:49.784Z,44.26
2018-12-12T08:34:18.506Z,42.76
2018-12-12T08:36:47.426Z,40.54
2018-12-12T08:39:16.677Z,39.82
2018-12-12T08:41:45.800Z,38.89
2018-12-12T08:44:14.598Z,38.98
2018-12-12T08:46:43.614Z,38.01
2018-12-12T08:49:12.562Z,36.50
2018-12-12T08:51:41.604Z,35.85
2018-12-12T08:54:10.563Z,33.77
2018-12-12T08:56:39.589Z,32.68
2018-12-12T08:59:08.640Z,30.89
2018-12-12T09:01:37.503Z,29.99
2018-12-12T09:04:06.490Z,27.84
2018-12-12T09:06:35.556Z,27.78
2018-12-12T09:09:06.834Z,30.16
2018-12-12T09:11:36.004Z,30.48
2018-12-12T09:14:05.049Z,32.38
2018-12-12T09:16:33.957Z,32.92
2018-12-12T09:19:02.959Z,32.64
2018-12-12T09:21:31.899Z,32.92
2018-12-12T09:24:00.745Z,33.89
2018-12-12T09:26:29.665Z,33.75
2018-12-12T09:28:58.595Z,33.44
2018-12-12T09:31:27.554Z,34.26
2018-12-12T09:33:56.624Z,35.21
2018-12-12T09:36:25.785Z,34.92
2018-12-12T09:38:55.028Z,34.78
2018-12-12T09:41:24.059Z,34.82
2018-12-12T09:43:53.599Z,35.10
2018-12-12T09:46:22.308Z,34.20
2018-12-12T09:48:51.155Z,32.64
2018-12-12T09:51:19.969Z,32.93
2018-12-12T09:53:49.154Z,32.73
2018-12-12T09:56:18.193Z,33.89
2018-12-12T09:58:46.955Z,35.34
2018-12-12T10:01:16.129Z,36.06
2018-12-12T10:03:45.198Z,35.23
2018-12-12T10:06:14.228Z,36.92
2018-12-12T10:08:51.654Z,37.58
2018-12-12T10:11:34.525Z,37.45
2018-12-12T10:14:04.261Z,37.47
2018-12-12T10:16:33.098Z,38.15
2018-12-12T10:19:02.171Z,37.52
2018-12-12T10:21:31.341Z,36.85
2018-12-12T10:24:00.184Z,37.53
2018-12-12T10:26:29.334Z,38.06
2018-12-12T10:28:58.588Z,38.49
2018-12-12T10:31:27.534Z,38.64
2018-12-12T10:33:56.865Z,38.35
2018-12-12T10:36:26.014Z,38.83
2018-12-12T10:38:55.134Z,39.54
2018-12-12T10:41:24.356Z,40.54
2018-12-12T10:43:53.481Z,41.42
2018-12-12T10:46:22.447Z,40.14
2018-12-12T10:48:51.393Z,41.64
2018-12-12T10:51:20.236Z,41.83
2018-12-12T10:53:49.209Z,42.01
2018-12-12T10:56:18.143Z,42.62
2018-12-12T10:58:47.138Z,43.13
2018-12-12T11:01:21.389Z,43.29
2018-12-12T11:03:50.083Z,42.97
2018-12-12T11:06:19.004Z,43.66
2018-12-12T11:08:48.099Z,43.10
2018-12-12T11:11:17.008Z,39.89
2018-12-12T11:13:45.703Z,36.70
2018-12-12T11:16:14.696Z,33.21
2018-12-12T11:18:43.553Z,28.98
2018-12-12T11:21:12.428Z,24.70
2018-12-12T11:23:41.376Z,25.31
2018-12-12T11:26:10.471Z,25.97
2018-12-12T11:28:41.487Z,26.98
2018-12-12T11:31:10.584Z,27.44
2018-12-12T11:33:39.407Z,30.01
2018-12-12T11:36:08.226Z,31.36
2018-12-12T11:38:37.136Z,32.01
2018-12-12T11:41:06.131Z,32.31
2018-12-12T11:43:35.246Z,32.16
2018-12-12T11:46:04.411Z,32.32
2018-12-12T11:48:33.514Z,33.42
2018-12-12T11:51:02.485Z,33.98
2018-12-12T11:53:31.408Z,34.11
2018-12-12T11:56:00.507Z,35.80
2018-12-12T11:58:29.195Z,37.10
2018-12-12T12:00:58.301Z,37.21
2018-12-12T12:03:27.346Z,37.64
2018-12-12T12:05:56.286Z,38.22
2018-12-12T12:08:25.186Z,38.69
2018-12-12T12:10:54.255Z,39.12
2018-12-12T12:13:23.172Z,40.10
2018-12-12T12:15:52.185Z,39.96
2018-12-12T12:18:21.253Z,39.72
2018-12-12T12:20:49.884Z,40.42
2018-12-12T12:23:18.707Z,39.47
2018-12-12T12:25:47.583Z,39.36
2018-12-12T12:28:16.663Z,39.81
2018-12-12T12:30:45.810Z,39.94
2018-12-12T12:33:14.743Z,40.28
2018-12-12T12:35:43.776Z,40.76
2018-12-12T12:38:12.945Z,40.12
2018-12-12T12:40:42.053Z,40.87
2018-12-12T12:43:10.793Z,41.14
2018-12-12T12:45:39.681Z,40.85
2018-12-12T12:48:08.718Z,41.67
2018-12-12T12:50:37.589Z,41.58
2018-12-12T12:53:06.423Z,41.24
2018-12-12T12:55:35.471Z,41.42
2018-12-12T12:58:04.559Z,40.59
2018-12-12T13:00:33.664Z,41.12
2018-12-12T13:03:02.620Z,41.15
2018-12-12T13:05:31.652Z,41.15
2018-12-12T13:08:00.448Z,41.55
2018-12-12T13:10:29.816Z,40.92
2018-12-12T13:12:59.165Z,42.10
2018-12-12T13:15:28.579Z,42.73
2018-12-12T13:17:57.583Z,43.03
2018-12-12T13:20:26.576Z,41.51
2018-12-12T13:22:55.647Z,41.24
2018-12-12T13:25:24.564Z,41.46
2018-12-12T13:27:53.634Z,40.16
2018-12-12T13:30:22.438Z,38.81
2018-12-12T13:32:51.421Z,40.42
2018-12-12T13:35:20.090Z,38.32
2018-12-12T13:37:49.104Z,39.37
2018-12-12T13:40:18.060Z,38.81
2018-12-12T13:42:47.172Z,39.46
2018-12-12T13:45:15.928Z,40.08
2018-12-12T13:47:44.860Z,40.26
2018-12-12T13:50:13.976Z,40.53
2018-12-12T13:52:42.832Z,41.68
2018-12-12T13:55:12.009Z,41.92
2018-12-12T13:57:41.156Z,42.58
2018-12-12T14:00:10.290Z,43.01
2018-12-12T14:02:39.436Z,42.67
2018-12-12T14:05:08.362Z,42.69
2018-12-12T14:07:37.374Z,43.23
2018-12-12T14:10:06.516Z,43.87
2018-12-12T14:12:35.558Z,43.74
2018-12-12T14:15:04.630Z,44.59
2018-12-12T14:17:33.746Z,45.01
2018-12-12T14:20:02.552Z,45.37
2018-12-12T14:22:31.547Z,44.97
2018-12-12T14:25:00.669Z,44.58
2018-12-12T14:27:29.728Z,44.56
2018-12-12T14:29:58.567Z,45.06
2018-12-12T14:32:27.394Z,44.43
2018-12-12T14:34:56.189Z,45.03
2018-12-12T14:37:25.381Z,44.92
2018-12-12T14:39:54.342Z,45.15
2018-12-12T14:42:23.411Z,46.09
2018-12-12T14:44:52.397Z,46.83
2018-12-12T14:47:21.415Z,46.81
2018-12-12T14:49:50.440Z,46.99
2018-12-12T14:52:19.163Z,47.00
2018-12-12T14:54:48.043Z,46.84
2018-12-12T14:57:17.008Z,47.10
2018-12-12T14:59:46.140Z,46.85
2018-12-12T15:02:15.251Z,47.08
2018-12-12T15:04:43.984Z,47.05
2018-12-12T15:07:12.874Z,47.20
2018-12-12T15:09:41.869Z,47.55
2018-12-12T15:12:10.869Z,47.26
2018-12-12T15:14:39.768Z,47.54
2018-12-12T15:17:08.614Z,47.54
2018-12-12T15:19:37.318Z,47.33
2018-12-12T15:22:06.668Z,47.68
2018-12-12T15:24:35.775Z,47.33
2018-12-12T15:27:04.569Z,47.55
2018-12-12T15:29:34.446Z,47.75
2018-12-12T15:32:03.455Z,47.69
2018-12-12T15:34:32.506Z,48.03
2018-12-12T15:37:01.544Z,47.54
2018-12-12T15:39:30.448Z,47.78
2018-12-12T15:41:59.423Z,47.84
2018-12-12T15:44:28.525Z,47.68
2018-12-12T15:46:57.675Z,47.67
2018-12-12T15:49:27.119Z,47.00
2018-12-12T15:51:56.599Z,47.28
2018-12-12T15:54:25.672Z,47.58
2018-12-12T15:56:54.708Z,46.87
2018-12-12T15:59:23.824Z,46.91
2018-12-12T16:01:53.019Z,47.10
2018-12-12T16:04:21.827Z,48.14
2018-12-12T16:06:50.736Z,48.50
2018-12-12T16:09:19.731Z,48.47
2018-12-12T16:11:48.835Z,48.38
2018-12-12T16:14:18.357Z,48.66
2018-12-12T16:16:47.447Z,47.98
2018-12-12T16:19:16.465Z,47.88
2018-12-12T16:21:45.289Z,47.69
2018-12-12T16:24:14.042Z,47.98
2018-12-12T16:26:42.959Z,48.11
2018-12-12T16:29:11.872Z,48.24
2018-12-12T16:31:40.658Z,48.42
2018-12-12T16:34:09.636Z,48.54
2018-12-12T16:36:38.693Z,48.68
2018-12-12T16:39:08.784Z,48.49
2018-12-12T16:41:37.889Z,48.58
2018-12-12T16:44:06.591Z,49.14
2018-12-12T16:46:35.339Z,49.33
2018-12-12T16:49:04.209Z,48.53
2018-12-12T16:51:33.175Z,49.11
2018-12-12T16:54:02.242Z,48.35
2018-12-12T16:56:31.342Z,48.15
2018-12-12T16:59:00.501Z,48.03
2018-12-12T17:01:29.407Z,48.10
2018-12-12T17:03:58.465Z,48.83
2018-12-12T17:06:28.016Z,48.84
2018-12-12T17:08:56.787Z,47.98
2018-12-12T17:11:25.975Z,47.88
2018-12-12T17:13:54.833Z,47.94
2018-12-12T17:16:23.851Z,48.17
2018-12-12T17:18:52.900Z,48.65
2018-12-12T17:21:22.495Z,48.81
2018-12-12T17:23:51.751Z,48.35
2018-12-12T17:26:20.803Z,48.45
2018-12-12T17:28:49.840Z,48.90
2018-12-12T17:31:18.976Z,48.56
2018-12-12T17:33:48.028Z,48.53
2018-12-12T17:36:17.077Z,47.90
2018-12-12T17:38:45.992Z,47.82
2018-12-12T17:41:14.753Z,48.13
2018-12-12T17:43:43.744Z,47.33
2018-12-12T17:46:12.894Z,47.88
2018-12-12T17:48:41.932Z,47.24
2018-12-12T17:51:10.936Z,47.29
2018-12-12T17:53:40.065Z,46.45
2018-12-12T17:56:08.897Z,47.56
2018-12-12T17:58:37.745Z,46.21
2018-12-12T18:01:06.696Z,46.19
2018-12-12T18:03:36.386Z,45.85
2018-12-12T18:06:05.535Z,45.07
2018-12-12T18:08:36.104Z,45.24
2018-12-12T18:11:06.309Z,44.74
2018-12-12T18:13:34.951Z,44.87
2018-12-12T18:16:03.934Z,44.95
2018-12-12T18:18:32.974Z,45.43
2018-12-12T18:21:02.012Z,46.05
2018-12-12T18:23:30.807Z,46.23
2018-12-12T18:26:00.378Z,46.56
2018-12-12T18:28:29.416Z,47.06
2018-12-12T18:30:58.533Z,47.00
2018-12-12T18:33:27.417Z,45.94
2018-12-12T18:35:57.059Z,45.09
2018-12-12T18:38:26.127Z,45.13
2018-12-12T18:40:55.134Z,45.89
2018-12-12T18:43:23.817Z,45.65
2018-12-12T18:45:52.600Z,44.92
2018-12-12T18:48:21.567Z,44.09
2018-12-12T18:50:51.256Z,44.21
2018-12-12T18:53:20.059Z,43.87
2018-12-12T18:55:48.726Z,42.84
2018-12-12T18:58:17.469Z,42.68
2018-12-12T19:00:46.143Z,42.77
2018-12-12T19:03:15.120Z,42.69
2018-12-12T19:05:44.548Z,43.13
2018-12-12T19:08:13.368Z,42.55
2018-12-12T19:10:42.309Z,42.94
2018-12-12T19:13:11.021Z,42.55
2018-12-12T19:15:39.988Z,42.16
2018-12-12T19:18:08.855Z,42.33
2018-12-12T19:20:37.938Z,42.73
2018-12-12T19:23:08.185Z,42.23
2018-12-12T19:25:37.081Z,42.63
2018-12-12T19:28:06.147Z,42.58
2018-12-12T19:30:35.168Z,41.73
2018-12-12T19:33:03.941Z,42.06
2018-12-12T19:35:34.838Z,43.81
2018-12-12T19:38:04.149Z,45.67
2018-12-12T19:40:33.171Z,46.55
2018-12-12T19:43:02.094Z,46.70
2018-12-12T19:45:31.073Z,48.09
2018-12-12T19:48:00.280Z,48.47
2018-12-12T19:50:29.411Z,48.75
2018-12-12T19:52:58.416Z,49.78
2018-12-12T19:55:27.247Z,49.64
2018-12-12T19:57:56.437Z,51.14
2018-12-12T20:00:25.241Z,51.38
2018-12-12T20:02:54.303Z,52.57
2018-12-12T20:05:23.369Z,53.19
2018-12-12T20:07:52.573Z,53.64
2018-12-12T20:10:21.624Z,53.44
2018-12-12T20:12:50.761Z,53.57
2018-12-12T20:15:24.823Z,54.08
2018-12-12T20:17:53.482Z,53.05
2018-12-12T20:20:22.487Z,53.25
2018-12-12T20:22:51.356Z,52.36
2018-12-12T20:25:20.251Z,52.23
2018-12-12T20:27:49.276Z,52.04
2018-12-12T20:30:18.084Z,51.97
2018-12-12T20:32:47.016Z,52.69
2018-12-12T20:35:16.089Z,53.33
2018-12-12T20:37:45.197Z,52.79
2018-12-12T20:40:14.865Z,53.15
2018-12-12T20:42:43.982Z,52.87
2018-12-12T20:45:13.029Z,53.44
2018-12-12T20:47:41.887Z,53.51
2018-12-12T20:50:10.949Z,52.37
2018-12-12T20:52:39.631Z,52.68
2018-12-12T20:55:09.418Z,52.16
2018-12-12T20:57:38.400Z,52.38
2018-12-12T21:00:07.672Z,53.79
2018-12-12T21:02:36.386Z,53.63
2018-12-12T21:05:05.426Z,53.75
2018-12-12T21:07:34.289Z,54.22
2018-12-12T21:10:03.393Z,54.55
2018-12-12T21:12:32.245Z,54.29
2018-12-12T21:15:01.131Z,54.18
2018-12-12T21:17:30.061Z,53.76
2018-12-12T21:19:59.124Z,54.25
2018-12-12T21:22:28.493Z,54.74
2018-12-12T21:24:57.505Z,54.62
2018-12-12T21:27:26.542Z,55.09
2018-12-12T21:29:55.601Z,55.69
2018-12-12T21:32:24.636Z,55.28
2018-12-12T21:34:53.683Z,55.63
2018-12-12T21:37:22.699Z,54.64
2018-12-12T21:39:51.585Z,55.26
2018-12-12T21:42:20.319Z,56.03
2018-12-12T21:44:49.380Z,56.02
2018-12-12T21:47:18.240Z,55.92
2018-12-12T21:49:47.129Z,56.57
2018-12-12T21:52:15.898Z,56.72
2018-12-12T21:54:44.753Z,55.90
2018-12-12T21:57:13.685Z,56.06
2018-12-12T21:59:42.572Z,56.81
2018-12-12T22:02:11.643Z,56.88
2018-12-12T22:04:40.777Z,57.39
2018-12-12T22:07:09.467Z,57.60
2018-12-12T22:09:38.410Z,57.46
2018-12-12T22:12:07.387Z,58.52
2018-12-12T22:14:36.491Z,57.58
2018-12-12T22:17:05.819Z,58.22
2018-12-12T22:19:34.731Z,58.13
2018-12-12T22:22:03.829Z,57.88
2018-12-12T22:24:32.961Z,57.64
2018-12-12T22:27:02.022Z,58.48
2018-12-12T22:29:31.040Z,59.02
2018-12-12T22:32:00.002Z,59.13
2018-12-12T22:34:28.999Z,59.98
2018-12-12T22:36:57.878Z,60.48
2018-12-12T22:39:26.636Z,60.48
2018-12-12T22:41:55.660Z,60.28
2018-12-12T22:44:24.323Z,59.79
2018-12-12T22:46:53.304Z,60.14
2018-12-12T22:49:22.534Z,60.75
2018-12-12T22:51:51.687Z,60.33
2018-12-12T22:54:20.644Z,60.38
2018-12-12T22:56:49.507Z,58.99
2018-12-12T22:59:18.548Z,57.60
2018-12-12T23:01:47.627Z,57.61
2018-12-12T23:04:16.563Z,57.60
2018-12-12T23:06:45.485Z,56.95
2018-12-12T23:09:14.574Z,56.27
2018-12-12T23:11:43.463Z,55.54
2018-12-12T23:14:12.193Z,53.14
2018-12-12T23:16:41.276Z,51.58
2018-12-12T23:19:10.340Z,50.62
2018-12-12T23:21:39.572Z,50.35
2018-12-12T23:24:08.734Z,49.70
2018-12-12T23:26:37.764Z,49.23
2018-12-12T23:29:06.510Z,48.91
2018-12-12T23:31:35.723Z,48.15
2018-12-12T23:34:04.765Z,47.80
2018-12-12T23:36:33.900Z,48.36
2018-12-12T23:39:04.015Z,49.03
2018-12-12T23:41:32.763Z,49.78
2018-12-12T23:44:01.486Z,48.63
2018-12-12T23:46:30.384Z,49.42
2018-12-12T23:48:59.258Z,49.33
2018-12-12T23:51:28.432Z,49.42
2018-12-12T23:53:57.503Z,48.77
2018-12-12T23:56:26.592Z,47.34
2018-12-12T23:58:55.338Z,48.58
